Time;durP1;ratioP1;P1;durP2;ratioP2;P2;SDS_P1;SDS_P2;PMS_P1;PMS_P2;Temp;Humidity;BMP_temperature;BMP_pressure;BME280_temperature;BME280_humidity;BME280_pressure;Samples;Min_cycle;Max_cycle;Signal;HPM_P1;HPM_P2
2023/05/02 16:05:21;;;;;;;;;5.75;5.75;;;;;22.37;45.58;101859.75;2084018;28;44863;-68
2023/05/02 16:06:40;;;;;;;;;9.25;9.25;;;;;22.45;45.22;101852.09;2078082;28;45185;-67
2023/05/02 16:07:59;;;;;;;;;9.00;9.00;;;;;22.49;44.69;101847.41;2076966;27;45492;-70
2023/05/02 16:09:19;;;;;;;;;7.25;7.25;;;;;22.53;44.32;101847.16;2066406;28;45061;-68
2023/05/02 16:10:40;;;;;;;;;9.75;7.25;;;;;22.57;46.18;101854.13;2071979;28;45481;-67
2023/05/02 16:12:00;;;;;;;;;7.75;7.00;;;;;22.63;44.19;101849.38;2061327;27;45051;-67
2023/05/02 16:14:28;;;;;;;;;8.00;7.00;;;;;22.63;43.65;101849.38;2051842;28;46014;-73
2023/05/02 16:15:29;;;;;;;;;6.33;6.33;;;;;22.60;44.20;101859.38;2083891;28;56446;-72
2023/05/02 16:16:30;;;;;;;;;7.00;7.00;;;;;22.56;43.81;101856.91;2083693;28;47181;-71
2023/05/02 16:17:31;;;;;;;;;9.25;9.25;;;;;22.53;43.59;101855.25;2077196;28;46766;-72
2023/05/02 16:18:32;;;;;;;;;15.50;14.50;;;;;22.50;43.42;101857.25;2077601;28;45044;-72
2023/05/02 16:19:32;;;;;;;;;11.75;11.25;;;;;22.44;43.72;101853.03;2078440;28;46452;-73
2023/05/02 16:20:35;;;;;;;;;7.67;7.67;;;;;22.39;43.62;101847.00;2078175;28;46225;-72
2023/05/02 16:21:35;;;;;;;;;5.75;5.50;;;;;22.36;43.31;101840.88;2085687;28;46566;-72
2023/05/02 16:22:36;;;;;;;;;6.33;6.33;;;;;22.29;42.97;101843.91;2085089;28;46260;-72
2023/05/02 16:23:36;;;;;;;;;5.00;5.00;;;;;22.28;43.68;101835.88;2079263;28;45702;-70
2023/05/02 16:24:37;;;;;;;;;7.00;6.67;;;;;22.29;43.69;101835.81;2079230;28;46766;-72
2023/05/02 16:25:37;;;;;;;;;8.00;8.00;;;;;22.31;43.32;101828.47;2079303;28;45663;-72
2023/05/02 16:26:38;;;;;;;;;8.00;6.00;;;;;22.33;43.17;101833.78;2078932;28;45085;-72
2023/05/02 16:27:38;;;;;;;;;7.00;7.00;;;;;22.36;43.38;101830.97;2078092;28;46584;-71
2023/05/02 16:28:39;;;;;;;;;8.67;8.00;;;;;22.40;43.13;101831.66;2077788;28;46776;-71
2023/05/02 16:29:40;;;;;;;;;7.00;5.00;;;;;22.44;43.44;101835.94;2078005;28;46349;-72
2023/05/02 16:30:40;;;;;;;;;6.50;6.50;;;;;22.48;43.55;101834.81;2077961;28;47028;-72
2023/05/02 16:31:41;;;;;;;;;8.33;8.33;;;;;22.53;43.23;101827.34;2077574;28;46044;-72
2023/05/02 16:32:41;;;;;;;;;5.67;5.67;;;;;22.55;43.00;101826.28;2078126;28;45460;-71
2023/05/02 16:33:41;;;;;;;;;8.33;8.33;;;;;22.60;43.63;101823.31;2076802;28;46423;-72
2023/05/02 16:34:42;;;;;;;;;9.00;9.00;;;;;22.64;43.48;101819.50;2069433;28;46206;-71
2023/05/02 16:35:42;;;;;;;;;6.67;6.67;;;;;22.69;43.16;101822.81;2068843;28;45810;-72
2023/05/02 16:36:42;;;;;;;;;8.00;7.00;;;;;22.74;43.51;101815.34;2077559;28;45064;-72
2023/05/02 16:37:43;;;;;;;;;5.33;5.33;;;;;22.77;43.07;101812.47;2077611;28;45628;-71
2023/05/02 16:38:43;;;;;;;;;6.00;6.00;;;;;22.80;42.18;101823.13;2077979;28;46728;-73
2023/05/02 16:39:45;;;;;;;;;5.67;5.67;;;;;22.81;42.17;101816.75;2078239;28;45616;-72
2023/05/02 16:40:45;;;;;;;;;7.50;7.25;;;;;22.84;42.69;101815.72;2085782;28;46829;-73
2023/05/02 16:41:46;;;;;;;;;7.67;7.67;;;;;22.87;42.39;101816.44;2085817;28;45603;-72
2023/05/02 16:42:46;;;;;;;;;7.75;7.75;;;;;22.90;42.56;101818.09;2076505;28;47488;-72
2023/05/02 16:43:48;;;;;;;;;7.00;5.67;;;;;22.94;42.67;101822.38;2078519;28;46068;-72
2023/05/02 16:44:48;;;;;;;;;7.00;7.00;;;;;22.98;42.75;101821.25;2077780;28;46093;-73
2023/05/02 16:46:03;;;;;;;;;5.00;5.00;;;;;23.02;41.91;101825.53;2077461;28;46064;-70
2023/05/02 16:47:03;;;;;;;;;10.20;9.40;;;;;23.05;42.00;101819.94;2077622;28;46378;-72
2023/05/02 16:48:04;;;;;;;;;10.67;9.33;;;;;23.09;42.28;101826.94;2078226;28;46050;-72
2023/05/02 16:49:05;;;;;;;;;7.67;7.67;;;;;23.12;41.69;101824.06;2077047;28;45828;-72
2023/05/02 16:50:06;;;;;;;;;8.33;8.00;;;;;23.17;41.73;101834.63;2078502;28;45763;-72
2023/05/02 16:51:06;;;;;;;;;8.25;8.25;;;;;23.19;41.80;101828.16;2077500;28;46554;-72
2023/05/02 16:52:07;;;;;;;;;6.67;6.00;;;;;23.22;42.17;101831.66;2077694;28;45910;-71
2023/05/02 16:53:07;;;;;;;;;9.67;8.67;;;;;23.26;41.93;101819.69;2077232;28;45141;-72
2023/05/02 16:54:07;;;;;;;;;8.00;6.33;;;;;23.31;42.14;101832.00;2078617;28;48862;-73
2023/05/02 16:55:08;;;;;;;;;6.33;6.00;;;;;23.38;41.85;101821.72;2077013;28;44971;-72
2023/05/02 16:56:08;;;;;;;;;8.33;7.00;;;;;23.45;41.51;101823.94;2075192;28;48083;-73
2023/05/02 16:57:09;;;;;;;;;7.00;6.67;;;;;23.51;41.28;101824.56;2069771;28;46227;-72
2023/05/02 16:58:09;;;;;;;;;6.00;6.00;;;;;23.56;40.89;101820.63;2078342;28;45046;-71
2023/05/02 16:59:10;;;;;;;;;8.00;8.00;;;;;23.61;40.50;101823.97;2075642;28;45586;-72
2023/05/02 17:00:13;;;;;;;;;9.00;9.00;;;;;23.64;41.03;101823.81;2077496;28;46757;-72
2023/05/02 17:01:14;;;;;;;;;5.75;5.50;;;;;23.67;40.32;101830.88;2076238;28;47435;-72
2023/05/02 17:02:15;;;;;;;;;5.00;4.67;;;;;23.71;40.60;101832.44;2076973;28;46658;-73
2023/05/02 17:03:16;;;;;;;;;9.00;7.25;;;;;23.73;40.01;101822.34;2090153;28;46036;-73
2023/05/02 17:04:16;;;;;;;;;6.67;5.33;;;;;23.77;40.12;101826.66;2080486;28;46150;-72
2023/05/02 17:05:18;;;;;;;;;5.33;5.33;;;;;23.78;40.07;101820.28;2076391;28;45976;-71
2023/05/02 17:06:19;;;;;;;;;5.75;5.75;;;;;23.80;40.17;101820.19;2077572;28;46825;-73
2023/05/02 17:07:19;;;;;;;;;6.67;6.67;;;;;23.84;40.29;101824.44;2076289;28;46185;-71
2023/05/02 17:08:19;;;;;;;;;7.00;7.00;;;;;23.87;39.83;101824.25;2078076;28;45610;-73
2023/05/02 17:09:20;;;;;;;;;7.00;7.00;;;;;23.89;39.29;101816.94;2076426;28;46228;-71
2023/05/02 17:10:20;;;;;;;;;7.33;6.00;;;;;23.87;39.54;101827.84;2078757;28;46815;-69
2023/05/02 17:11:21;;;;;;;;;6.00;6.00;;;;;23.84;40.09;101819.88;2084901;28;45350;-72
2023/05/02 17:12:21;;;;;;;;;7.00;7.00;;;;;23.83;40.28;101825.41;2081668;28;45254;-72
2023/05/02 17:13:22;;;;;;;;;5.00;5.00;;;;;23.82;40.49;101821.81;2082650;28;45582;-73
2023/05/02 17:14:23;;;;;;;;;7.00;5.00;;;;;23.83;39.64;101822.69;2078216;28;46267;-72
2023/05/02 17:15:23;;;;;;;;;8.00;8.00;;;;;23.83;39.36;101825.41;2076233;28;45945;-72
2023/05/02 17:16:23;;;;;;;;;5.00;5.00;;;;;23.83;39.79;101826.28;2074216;28;46136;-71
2023/05/02 17:17:24;;;;;;;;;7.00;7.00;;;;;23.84;39.90;101828.03;2069823;28;46599;-71
2023/05/02 17:18:25;;;;;;;;;6.00;6.00;;;;;23.83;39.75;101829.00;2073035;28;46015;-72
2023/05/02 17:19:25;;;;;;;;;6.00;6.00;;;;;23.79;39.62;101827.44;2070527;28;45698;-71
2023/05/02 17:20:26;;;;;;;;;8.00;8.00;;;;;23.75;39.86;101828.56;2072018;28;45802;-71
2023/05/02 17:21:26;;;;;;;;;7.00;7.00;;;;;23.69;40.17;101826.22;2068829;28;45755;-72
2023/05/02 17:22:27;;;;;;;;;8.67;7.67;;;;;23.64;40.42;101825.63;2067585;28;46445;-72
2023/05/02 17:23:29;;;;;;;;;6.67;6.67;;;;;23.57;40.04;101833.22;2069933;28;45802;-71
2023/05/02 17:24:29;;;;;;;;;8.75;8.00;;;;;23.47;40.09;101834.69;2072800;28;46512;-72
2023/05/02 17:25:30;;;;;;;;;8.00;8.00;;;;;23.38;40.61;101824.41;2070572;28;46467;-72
2023/05/02 17:26:30;;;;;;;;;8.00;6.00;;;;;23.29;40.71;101827.66;2071248;28;47062;-71
2023/05/02 17:27:31;;;;;;;;;6.67;6.67;;;;;23.22;40.68;101837.06;2060218;28;45569;-71
2023/05/02 17:28:31;;;;;;;;;6.00;6.00;;;;;23.13;40.48;101833.94;2047382;28;46419;-71
2023/05/02 17:29:32;;;;;;;;;5.00;5.00;;;;;23.04;40.83;101833.56;2045602;28;46216;-72
2023/05/02 17:30:33;;;;;;;;;8.00;7.00;;;;;22.95;41.21;101824.13;2072354;28;46542;-73
2023/05/02 17:31:33;;;;;;;;;6.00;5.33;;;;;22.87;40.94;101829.13;2053963;28;46307;-71
2023/05/02 17:32:36;;;;;;;;;6.67;6.33;;;;;22.77;40.93;101822.41;2063512;28;46389;-72
2023/05/02 17:33:36;;;;;;;;;5.25;5.25;;;;;22.66;41.46;101825.72;2070535;28;46306;-73
2023/05/02 17:34:37;;;;;;;;;10.67;9.00;;;;;22.59;41.66;101824.28;2072507;28;46355;-71
2023/05/02 17:35:37;;;;;;;;;13.25;10.50;;;;;22.49;41.83;101829.34;2066807;28;46347;-68
2023/05/02 17:36:40;;;;;;;;;5.67;5.33;;;;;22.43;41.91;101831.47;2068486;28;46694;-65
2023/05/02 17:37:41;;;;;;;;;7.75;7.75;;;;;22.36;42.23;101833.66;2067668;28;46524;-70
2023/05/02 17:38:41;;;;;;;;;7.33;7.33;;;;;22.29;41.96;101830.38;2070676;28;46688;-67
2023/05/02 17:39:41;;;;;;;;;11.00;10.67;;;;;22.22;42.35;101837.06;2069545;28;46006;-67
2023/05/02 17:40:42;;;;;;;;;8.00;8.00;;;;;22.17;41.87;101836.44;2071321;28;47787;-67
2023/05/02 17:41:42;;;;;;;;;11.00;9.67;;;;;22.12;41.55;101838.53;2063222;28;45554;-69
2023/05/02 17:42:44;;;;;;;;;7.33;6.67;;;;;22.04;41.79;101838.88;2070774;28;45648;-68
2023/05/02 17:43:46;;;;;;;;;9.50;9.00;;;;;21.97;42.22;101834.72;2070190;28;47331;-67
2023/05/02 17:44:47;;;;;;;;;9.50;9.50;;;;;21.91;42.33;101840.47;2061854;28;46236;-69
2023/05/02 17:45:47;;;;;;;;;9.75;9.75;;;;;21.86;42.29;101834.44;2065937;28;46743;-70
2023/05/02 17:46:48;;;;;;;;;9.00;9.00;;;;;21.82;42.04;101848.16;2065222;28;45671;-68
2023/05/02 17:47:48;;;;;;;;;8.00;8.00;;;;;21.76;41.99;101841.25;2054926;28;45727;-69
2023/05/02 17:48:50;;;;;;;;;12.00;12.00;;;;;21.73;41.73;101836.00;2056906;28;45933;-68
2023/05/02 17:49:52;;;;;;;;;12.00;10.50;;;;;21.68;42.38;101846.16;2060227;28;47167;-68
2023/05/02 17:50:54;;;;;;;;;9.00;7.75;;;;;21.63;42.32;101835.59;2060347;28;46423;-69
2023/05/02 17:51:54;;;;;;;;;7.75;6.25;;;;;21.60;42.03;101837.59;2055595;28;46644;-69
2023/05/02 17:52:56;;;;;;;;;5.00;5.00;;;;;21.57;41.76;101845.81;2064498;28;45744;-69
2023/05/02 17:53:56;;;;;;;;;10.00;9.00;;;;;21.52;41.90;101846.06;2046561;28;46685;-69
2023/05/02 17:54:57;;;;;;;;;7.00;7.00;;;;;21.51;42.28;101851.53;2045735;28;45954;-70
2023/05/02 17:56:00;;;;;;;;;7.33;7.00;;;;;21.48;42.12;101846.28;2047160;28;46063;-70
2023/05/02 17:57:00;;;;;;;;;7.75;7.75;;;;;21.43;41.82;101846.50;2044756;28;46226;-70
2023/05/02 17:58:01;;;;;;;;;8.67;8.67;;;;;21.39;42.41;101850.31;2046945;28;45617;-69
2023/05/02 17:59:01;;;;;;;;;10.00;9.00;;;;;21.33;42.38;101837.97;2045899;28;45682;-70
2023/05/02 18:00:03;;;;;;;;;13.00;12.00;;;;;21.29;42.38;101849.88;2043782;28;46865;-69
2023/05/02 18:01:10;;;;;;;;;8.00;8.00;;;;;21.27;42.71;101853.59;2045549;28;46341;-69
2023/05/02 18:02:11;;;;;;;;;10.50;9.75;;;;;21.25;42.94;101855.47;2054301;28;45812;-70
2023/05/02 18:03:11;;;;;;;;;11.25;11.00;;;;;21.22;43.08;101856.50;2053166;28;46923;-71
2023/05/02 18:04:13;;;;;;;;;5.67;5.67;;;;;21.19;43.17;101853.06;2046646;28;46730;-70
2023/05/02 18:05:13;;;;;;;;;9.00;8.20;;;;;21.15;42.52;101860.44;2047234;28;46228;-69
2023/05/02 18:06:15;;;;;;;;;7.33;7.00;;;;;21.10;43.35;101857.97;2048588;28;46779;-69
2023/05/02 18:07:22;;;;;;;;;9.20;9.20;;;;;21.07;43.65;101862.59;2047957;28;45131;-69
2023/05/02 18:08:22;;;;;;;;;7.00;7.00;;;;;21.06;43.41;101863.56;2048369;28;46534;-69
2023/05/02 18:09:23;;;;;;;;;9.33;9.33;;;;;21.03;42.93;101864.56;2045835;28;46279;-68
2023/05/02 18:10:23;;;;;;;;;10.25;9.00;;;;;21.01;43.21;101854.81;2039007;28;46197;-69
2023/05/02 18:11:26;;;;;;;;;9.50;8.25;;;;;20.99;43.04;101862.09;2037976;28;45611;-70
2023/05/02 18:12:26;;;;;;;;;9.60;9.60;;;;;20.95;43.34;101861.34;2047433;28;46367;-69
2023/05/02 18:13:27;;;;;;;;;8.25;7.25;;;;;20.94;43.41;101864.13;2046067;28;47048;-69
2023/05/02 18:14:27;;;;;;;;;10.00;10.00;;;;;20.91;43.45;101865.16;2046729;28;46317;-69
2023/05/02 18:15:28;;;;;;;;;12.33;12.00;;;;;20.88;43.88;101862.59;2044826;28;45543;-70
2023/05/02 18:16:30;;;;;;;;;8.25;8.25;;;;;20.86;43.89;101861.81;2054936;28;45610;-69
2023/05/02 18:17:31;;;;;;;;;13.80;13.40;;;;;20.84;43.68;101863.69;2061194;28;46799;-69
2023/05/02 18:18:31;;;;;;;;;9.00;9.00;;;;;20.79;43.65;101869.28;2062968;28;45698;-68
2023/05/02 18:19:32;;;;;;;;;12.50;11.50;;;;;20.76;43.93;101866.75;2061686;28;46359;-70
2023/05/02 18:20:38;;;;;;;;;8.00;8.00;;;;;20.72;44.22;101864.28;2063602;28;45566;-70
2023/05/02 18:21:38;;;;;;;;;11.80;11.20;;;;;20.71;44.53;101865.19;2062380;28;46806;-71
2023/05/02 18:22:38;;;;;;;;;9.75;9.75;;;;;20.69;44.54;101872.47;2054330;28;46195;-69
2023/05/02 18:23:39;;;;;;;;;13.00;11.25;;;;;20.66;44.10;101861.84;2051050;28;46825;-70
2023/05/02 18:24:40;;;;;;;;;8.75;8.75;;;;;20.65;44.66;101870.88;2049681;28;46520;-70
2023/05/02 18:25:40;;;;;;;;;10.80;10.80;;;;;20.61;44.61;101869.28;2061995;28;46504;-71
2023/05/02 18:26:41;;;;;;;;;9.00;8.00;;;;;20.57;44.60;101872.09;2071780;28;46246;-71
2023/05/02 18:27:41;;;;;;;;;8.25;7.75;;;;;20.53;44.36;101867.78;2069467;28;46576;-70
2023/05/02 18:28:43;;;;;;;;;10.00;9.75;;;;;20.50;44.15;101873.31;2071783;28;46336;-70
2023/05/02 18:29:43;;;;;;;;;10.60;9.20;;;;;20.45;44.76;101879.84;2071168;28;45636;-70
2023/05/02 18:30:44;;;;;;;;;8.33;8.00;;;;;20.42;44.57;101872.78;2072704;28;46453;-72
2023/05/02 18:31:50;;;;;;;;;11.75;10.75;;;;;20.40;44.42;101873.75;2058785;28;45837;-71
2023/05/02 18:32:51;;;;;;;;;7.80;7.80;;;;;20.35;44.44;101868.59;2069929;28;45268;-70
2023/05/02 18:33:54;;;;;;;;;11.25;11.25;;;;;20.33;44.54;101870.47;2069133;28;46889;-70
2023/05/02 18:34:55;;;;;;;;;8.80;8.80;;;;;20.28;44.83;101867.97;2072584;28;46337;-71
2023/05/02 18:35:55;;;;;;;;;9.80;9.60;;;;;20.25;44.85;101873.50;2068135;28;46455;-69
2023/05/02 18:37:01;;;;;;;;;11.00;11.00;;;;;20.22;45.45;101870.06;2069281;28;46922;-70
2023/05/02 18:38:05;;;;;;;;;9.00;9.00;;;;;20.21;45.42;101876.41;2069897;28;46102;-69
2023/05/02 18:39:05;;;;;;;;;10.20;10.00;;;;;20.17;44.94;101866.66;2069447;28;46614;-66
2023/05/02 18:40:07;;;;;;;;;9.00;9.00;;;;;20.14;45.54;101874.91;2068719;28;46370;-71
2023/05/02 18:41:08;;;;;;;;;10.00;10.00;;;;;20.11;45.09;101873.22;2061922;28;46705;-71
2023/05/02 18:42:09;;;;;;;;;5.50;5.50;;;;;20.10;45.32;101875.97;2062738;28;47248;-68
2023/05/02 18:43:10;;;;;;;;;10.75;9.50;;;;;20.06;45.67;101879.72;2069620;28;46575;-67
2023/05/02 18:44:11;;;;;;;;;8.00;7.00;;;;;20.04;45.84;101878.91;2070153;28;46322;-69
2023/05/02 18:45:11;;;;;;;;;9.75;9.25;;;;;20.02;45.75;101878.13;2068690;28;46416;-67
2023/05/02 18:46:11;;;;;;;;;9.50;9.50;;;;;19.99;45.68;101882.69;2070485;28;46287;-71
2023/05/02 18:47:12;;;;;;;;;9.00;9.00;;;;;19.97;46.17;101879.19;2062143;28;46861;-69
2023/05/02 18:48:12;;;;;;;;;9.75;9.00;;;;;19.97;46.18;101883.72;2063233;28;46553;-69
2023/05/02 18:49:13;;;;;;;;;10.25;10.25;;;;;19.94;45.82;101887.38;2069462;28;47215;-71
2023/05/02 18:50:14;;;;;;;;;9.75;9.75;;;;;19.92;45.79;101881.19;2055588;28;47085;-70
2023/05/02 18:51:14;;;;;;;;;8.00;7.80;;;;;19.89;45.89;101886.72;2054723;28;46037;-71
2023/05/02 18:52:15;;;;;;;;;9.67;8.00;;;;;19.86;46.47;101889.53;2072096;28;47081;-71
2023/05/02 18:53:15;;;;;;;;;10.00;9.00;;;;;19.85;46.48;101886.91;2065187;28;46488;-68
2023/05/02 18:54:18;;;;;;;;;6.00;6.00;;;;;19.83;46.19;101881.59;2064472;28;46263;-70
2023/05/02 18:55:18;;;;;;;;;7.00;7.00;;;;;19.81;46.29;101890.66;2070547;28;45755;-71
2023/05/02 18:56:19;;;;;;;;;8.00;8.00;;;;;19.80;46.55;101892.47;2072427;28;45239;-70
2023/05/02 18:57:20;;;;;;;;;7.33;7.33;;;;;19.78;46.25;101886.28;2071980;28;46367;-71
2023/05/02 18:58:21;;;;;;;;;9.00;9.00;;;;;19.79;46.23;101888.03;2071973;28;46994;-71
2023/05/02 18:59:21;;;;;;;;;8.25;8.25;;;;;19.76;46.41;101885.47;2072054;28;45894;-70
2023/05/02 19:00:23;;;;;;;;;14.00;12.50;;;;;19.75;46.80;101889.09;2065580;28;45496;-70
2023/05/02 19:01:26;;;;;;;;;8.60;8.60;;;;;19.72;46.84;101882.97;2067062;28;46448;-71
2023/05/02 19:02:26;;;;;;;;;5.00;4.50;;;;;19.71;46.93;101886.63;2072286;28;45566;-70
2023/05/02 19:03:27;;;;;;;;;7.33;6.33;;;;;19.69;46.77;101881.25;2071407;28;46888;-71
2023/05/02 19:04:30;;;;;;;;;6.00;5.50;;;;;19.68;47.15;101884.91;2075763;28;46654;-70
2023/05/02 19:05:33;;;;;;;;;6.75;6.25;;;;;19.67;46.98;101891.22;2071681;28;46585;-69
2023/05/02 19:06:33;;;;;;;;;8.20;8.20;;;;;19.65;46.77;101891.28;2072220;28;46034;-70
2023/05/02 19:07:35;;;;;;;;;8.00;8.00;;;;;19.64;47.35;101894.94;2077426;28;46815;-70
2023/05/02 19:08:35;;;;;;;;;6.20;6.20;;;;;19.63;47.18;101898.56;2071557;28;45315;-70
2023/05/02 19:09:35;;;;;;;;;10.75;9.75;;;;;19.62;47.12;101886.03;2068441;28;46553;-71
2023/05/02 19:10:36;;;;;;;;;8.50;7.75;;;;;19.60;47.29;101898.69;2069331;28;46061;-70
2023/05/02 19:11:37;;;;;;;;;8.50;8.50;;;;;19.60;47.53;101900.50;2072930;28;47019;-70
2023/05/02 19:12:38;;;;;;;;;9.00;9.00;;;;;19.59;47.58;101902.34;2077422;28;46444;-70
2023/05/02 19:13:38;;;;;;;;;7.40;7.40;;;;;19.58;47.51;101905.09;2072467;28;47210;-71
2023/05/02 19:14:39;;;;;;;;;12.25;12.25;;;;;19.58;47.75;101903.28;2072287;28;45952;-70
2023/05/02 19:15:39;;;;;;;;;8.50;8.50;;;;;19.58;47.47;101902.41;2078124;28;46489;-70
2023/05/02 19:16:39;;;;;;;;;8.00;8.00;;;;;19.57;47.37;101904.22;2074204;28;46483;-70
2023/05/02 19:17:40;;;;;;;;;10.00;9.25;;;;;19.56;47.85;101904.25;2072561;28;46643;-72
2023/05/02 19:18:42;;;;;;;;;9.50;9.00;;;;;19.54;47.47;101909.66;2077032;28;45967;-72
2023/05/02 19:19:42;;;;;;;;;9.00;8.40;;;;;19.53;47.41;101905.22;2080162;28;45925;-72
2023/05/02 19:20:42;;;;;;;;;9.00;8.25;;;;;19.51;47.37;101904.41;2078031;28;45927;-71
2023/05/02 19:21:44;;;;;;;;;8.00;8.00;;;;;19.49;47.58;101905.41;2073445;28;45717;-70
2023/05/02 19:22:45;;;;;;;;;8.50;8.50;;;;;19.47;48.10;101908.19;2070978;28;46587;-70
2023/05/02 19:23:46;;;;;;;;;7.75;6.25;;;;;19.46;47.92;101908.25;2065809;28;44960;-71
2023/05/02 19:24:46;;;;;;;;;9.80;9.00;;;;;19.45;47.70;101909.19;2079935;28;45724;-72
2023/05/02 19:25:47;;;;;;;;;7.25;7.25;;;;;19.43;47.95;101903.81;2071420;28;45611;-70
2023/05/02 19:26:48;;;;;;;;;9.50;7.75;;;;;19.41;47.79;101906.59;2073292;28;45522;-71
2023/05/02 19:27:48;;;;;;;;;8.00;8.00;;;;;19.40;47.87;101909.34;2072216;28;45938;-72
2023/05/02 19:28:49;;;;;;;;;9.50;9.50;;;;;19.37;47.67;101899.56;2073122;28;46032;-71
2023/05/02 19:29:52;;;;;;;;;6.00;6.00;;;;;19.35;47.93;101905.97;2071736;28;46169;-71
2023/05/02 19:30:53;;;;;;;;;8.50;8.50;;;;;19.33;47.82;101906.03;2069251;28;46960;-72
2023/05/02 19:31:53;;;;;;;;;9.00;9.00;;;;;19.31;48.19;101905.22;2071635;28;46169;-70
2023/05/02 19:32:54;;;;;;;;;10.25;9.50;;;;;19.29;48.05;101901.69;2072734;28;45956;-72
2023/05/02 19:33:54;;;;;;;;;9.75;9.75;;;;;19.29;48.20;101912.44;2071849;28;45176;-71
2023/05/02 19:34:55;;;;;;;;;8.33;7.33;;;;;19.28;48.01;101912.50;2070941;28;46931;-72
2023/05/02 19:35:57;;;;;;;;;9.00;8.50;;;;;19.26;47.97;101904.50;2071463;28;46211;-72
2023/05/02 19:36:59;;;;;;;;;8.00;8.00;;;;;19.26;48.04;101911.69;2070995;28;45785;-71
2023/05/02 19:38:00;;;;;;;;;9.25;8.50;;;;;19.23;47.93;101909.13;2064816;28;46537;-69
2023/05/02 19:39:01;;;;;;;;;12.20;11.00;;;;;19.23;48.14;101909.13;2080410;28;45128;-71
2023/05/02 19:40:03;;;;;;;;;9.20;9.20;;;;;19.22;48.13;101910.94;2081387;28;45519;-71
2023/05/02 19:41:06;;;;;;;;;9.00;9.00;;;;;19.22;47.75;101913.63;2073940;28;45680;-70
2023/05/02 19:42:07;;;;;;;;;7.60;7.60;;;;;19.23;48.20;101909.13;2074047;28;45439;-71
2023/05/02 19:43:07;;;;;;;;;9.00;9.00;;;;;19.23;48.07;101904.63;2073436;28;46126;-71
2023/05/02 19:44:07;;;;;;;;;7.25;7.25;;;;;19.24;48.04;101918.97;2065513;28;45921;-69
2023/05/02 19:45:09;;;;;;;;;11.00;11.00;;;;;19.24;47.76;101917.16;2064901;28;46028;-69
2023/05/02 19:46:09;;;;;;;;;7.20;6.60;;;;;19.24;47.86;101918.97;2072505;28;46451;-70
2023/05/02 19:47:09;;;;;;;;;8.25;8.25;;;;;19.22;47.79;101912.75;2073807;28;46632;-70
2023/05/02 19:48:10;;;;;;;;;8.67;8.33;;;;;19.20;47.85;101917.34;2065230;28;45451;-71
2023/05/02 19:49:10;;;;;;;;;9.33;9.00;;;;;19.19;48.05;101913.75;2056273;28;45398;-69
2023/05/02 19:50:11;;;;;;;;;9.00;8.75;;;;;19.17;47.79;101920.13;2071748;28;46534;-70
2023/05/02 19:51:11;;;;;;;;;6.67;6.67;;;;;19.16;47.94;101915.69;2080252;28;46340;-71
2023/05/02 19:52:11;;;;;;;;;8.00;8.00;;;;;19.15;47.61;101917.50;2079736;28;46361;-69
2023/05/02 19:53:12;;;;;;;;;7.00;7.00;;;;;19.13;47.75;101919.38;2072841;28;46234;-71
2023/05/02 19:54:12;;;;;;;;;7.00;7.00;;;;;19.13;47.54;101924.75;2072478;28;46462;-71
2023/05/02 19:55:14;;;;;;;;;7.00;7.00;;;;;19.12;47.64;101925.69;2072607;28;45383;-71
2023/05/02 19:56:15;;;;;;;;;7.20;6.80;;;;;19.10;47.69;101928.44;2079897;28;46120;-70
2023/05/02 19:57:16;;;;;;;;;9.33;7.33;;;;;19.10;47.54;101932.94;2079702;28;45970;-70
2023/05/02 19:58:17;;;;;;;;;6.75;6.75;;;;;19.09;47.71;101937.44;2072775;28;45759;-72
2023/05/02 19:59:17;;;;;;;;;7.00;7.00;;;;;19.09;47.78;101933.88;2069672;28;46397;-70
2023/05/02 20:00:18;;;;;;;;;8.00;6.00;;;;;19.07;47.82;101933.94;2072273;28;46057;-70
2023/05/02 20:01:18;;;;;;;;;7.00;7.00;;;;;19.06;47.32;101932.19;2071794;28;46281;-70
2023/05/02 20:02:20;;;;;;;;;8.00;7.67;;;;;19.05;47.71;101930.41;2071656;28;46249;-71
2023/05/02 20:03:21;;;;;;;;;5.50;5.50;;;;;19.05;47.35;101932.22;2061138;28;46217;-70
2023/05/02 20:04:23;;;;;;;;;8.00;8.00;;;;;19.04;47.53;101930.47;2062447;28;46352;-74
2023/05/02 20:05:24;;;;;;;;;7.50;7.50;;;;;19.01;47.93;101934.16;2072867;28;45417;-74
2023/05/02 20:06:25;;;;;;;;;8.00;8.00;;;;;19.00;47.50;101932.41;2071636;28;45606;-71
2023/05/02 20:07:25;;;;;;;;;6.00;5.00;;;;;19.00;47.66;101942.28;2071816;28;46580;-72
2023/05/02 20:08:26;;;;;;;;;7.25;7.25;;;;;18.99;47.61;101938.72;2067505;28;46785;-71
2023/05/02 20:09:28;;;;;;;;;7.80;7.80;;;;;18.99;47.75;101935.16;2070279;28;45971;-70
2023/05/02 20:10:28;;;;;;;;;6.20;5.60;;;;;18.99;47.93;101933.34;2071551;28;46722;-72
2023/05/02 20:11:29;;;;;;;;;5.25;5.25;;;;;18.99;47.31;101937.84;2071812;28;46132;-72
2023/05/02 20:12:32;;;;;;;;;8.75;8.00;;;;;18.98;47.39;101939.66;2069539;28;45587;-71
2023/05/02 20:13:32;;;;;;;;;6.00;6.00;;;;;18.98;47.75;101941.47;2071819;28;45807;-71
2023/05/02 20:14:32;;;;;;;;;7.00;6.00;;;;;18.96;47.68;101933.47;2071661;28;45464;-72
2023/05/02 20:15:33;;;;;;;;;9.50;9.50;;;;;18.96;47.83;101936.16;2071446;28;46595;-71
2023/05/02 20:16:34;;;;;;;;;8.33;7.33;;;;;18.96;47.74;101938.84;2072073;28;45520;-70
2023/05/02 20:17:34;;;;;;;;;8.00;7.33;;;;;18.95;48.00;101937.09;2071867;28;45884;-72
2023/05/02 20:18:34;;;;;;;;;8.00;8.00;;;;;18.96;47.52;101944.22;2072357;28;46258;-71
2023/05/02 20:19:35;;;;;;;;;7.33;7.33;;;;;18.96;47.58;101940.66;2070104;28;46714;-72
2023/05/02 20:20:35;;;;;;;;;5.50;4.50;;;;;18.95;47.80;101942.47;2071295;28;46449;-72
2023/05/02 20:21:36;;;;;;;;;6.50;6.50;;;;;18.95;47.76;101938.91;2071749;28;45826;-73
2023/05/02 20:22:39;;;;;;;;;10.00;10.00;;;;;18.96;47.87;101946.03;2071821;28;45563;-72
2023/05/02 20:23:42;;;;;;;;;10.50;10.50;;;;;18.96;47.48;101941.53;2072184;28;45185;-73
2023/05/02 20:24:42;;;;;;;;;10.00;8.75;;;;;18.96;47.57;101937.97;2071806;28;46594;-73
2023/05/02 20:25:42;;;;;;;;;11.25;10.50;;;;;18.95;47.46;101938.91;2072289;28;45445;-73
2023/05/02 20:26:43;;;;;;;;;7.00;7.00;;;;;18.94;47.92;101946.09;2071864;28;46570;-73
2023/05/02 20:27:43;;;;;;;;;11.75;10.00;;;;;18.94;47.29;101942.53;2072348;28;45989;-72
2023/05/02 20:28:44;;;;;;;;;10.00;10.00;;;;;18.93;47.70;101946.13;2069260;28;46706;-73
2023/05/02 20:29:44;;;;;;;;;7.33;7.33;;;;;18.92;47.70;101945.25;2079443;28;46233;-72
2023/05/02 20:30:44;;;;;;;;;9.25;9.25;;;;;18.92;47.40;101942.56;2079997;28;46152;-73
2023/05/02 20:31:45;;;;;;;;;10.75;10.75;;;;;18.91;47.33;101945.31;2072927;28;45772;-72
2023/05/02 20:32:45;;;;;;;;;10.75;10.00;;;;;18.89;47.51;101947.19;2072602;28;48289;-71
2023/05/02 20:33:46;;;;;;;;;13.75;11.50;;;;;18.87;47.62;101949.06;2080698;28;47035;-72
2023/05/02 20:34:46;;;;;;;;;10.00;9.00;;;;;18.85;47.72;101938.34;2074554;28;46794;-71
2023/05/02 20:35:53;;;;;;;;;10.50;9.25;;;;;18.84;47.39;101947.38;2073036;28;46571;-70
2023/05/02 20:36:53;;;;;;;;;12.20;10.40;;;;;18.82;47.53;101946.56;2067371;28;45456;-72
2023/05/02 20:37:54;;;;;;;;;8.50;8.50;;;;;18.80;47.54;101954.69;2076246;28;46536;-72
2023/05/02 20:38:54;;;;;;;;;10.00;8.25;;;;;18.78;47.63;101953.81;2080290;28;45159;-72
2023/05/02 20:39:55;;;;;;;;;10.50;9.25;;;;;18.77;47.54;101956.56;2073145;28;45721;-71
2023/05/02 20:40:56;;;;;;;;;8.67;8.67;;;;;18.75;47.36;101953.94;2073503;28;45643;-71
2023/05/02 20:41:57;;;;;;;;;13.75;13.25;;;;;18.73;47.39;101949.56;2072622;28;45698;-71
2023/05/02 20:43:00;;;;;;;;;11.75;10.50;;;;;18.73;47.48;101960.31;2077835;28;45899;-73
2023/05/02 20:44:02;;;;;;;;;14.40;11.60;;;;;18.71;47.61;101954.13;2081577;28;47477;-71
2023/05/02 20:45:05;;;;;;;;;10.20;9.00;;;;;18.71;47.92;101951.44;2081255;28;46900;-71
2023/05/02 20:46:11;;;;;;;;;11.60;10.20;;;;;18.69;47.76;101954.19;2081335;28;45624;-70
2023/05/02 20:47:12;;;;;;;;;12.80;12.80;;;;;18.69;47.59;101956.00;2080351;28;46748;-71
2023/05/02 20:48:17;;;;;;;;;11.00;11.00;;;;;18.67;47.59;101956.03;2080720;28;45998;-71
2023/05/02 20:49:17;;;;;;;;;15.60;13.00;;;;;18.66;47.62;101956.94;2080479;28;47125;-72
2023/05/02 20:50:17;;;;;;;;;14.25;12.50;;;;;18.64;47.71;101955.25;2075972;28;46120;-70